createdAt,value
2018-10-19T00:00:14.140Z,13.73
2018-10-19T00:02:42.009Z,13.43
2018-10-19T00:05:10.064Z,15.30
2018-10-19T00:07:37.619Z,14.47
2018-10-19T00:10:05.836Z,14.70
2018-10-19T00:12:33.514Z,16.47
2018-10-19T00:15:01.175Z,14.00
2018-10-19T00:17:28.803Z,13.67
2018-10-19T00:19:56.467Z,13.90
2018-10-19T00:22:24.252Z,16.07
2018-10-19T00:24:51.883Z,18.60
2018-10-19T00:27:19.516Z,18.03
2018-10-19T00:29:47.187Z,19.83
2018-10-19T00:32:14.766Z,24.97
2018-10-19T00:34:42.401Z,22.13
2018-10-19T00:37:09.981Z,18.80
2018-10-19T00:39:37.523Z,18.43
2018-10-19T00:42:05.481Z,20.23
2018-10-19T00:44:33.096Z,18.70
2018-10-19T00:47:00.733Z,17.07
2018-10-19T00:49:28.252Z,16.37
2018-10-19T00:51:55.885Z,16.87
2018-10-19T00:54:23.482Z,15.23
2018-10-19T00:56:51.076Z,18.40
2018-10-19T00:59:18.824Z,16.67
2018-10-19T01:01:46.467Z,15.93
2018-10-19T01:04:14.073Z,17.90
2018-10-19T01:06:41.744Z,15.60
2018-10-19T01:09:09.868Z,14.80
2018-10-19T01:11:37.495Z,16.23
2018-10-19T01:14:05.345Z,16.03
2018-10-19T01:16:32.992Z,19.17
2018-10-19T01:19:00.641Z,15.77
2018-10-19T01:21:28.265Z,15.97
2018-10-19T01:23:55.876Z,15.17
2018-10-19T01:26:23.536Z,14.43
2018-10-19T01:28:51.219Z,12.20
2018-10-19T01:31:18.834Z,13.40
2018-10-19T01:33:46.751Z,11.93
2018-10-19T01:36:14.430Z,14.27
2018-10-19T01:38:42.106Z,15.27
2018-10-19T01:41:09.862Z,11.70
2018-10-19T01:43:37.396Z,13.73
2018-10-19T01:46:05.128Z,13.97
2018-10-19T01:48:32.762Z,11.60
2018-10-19T01:51:00.676Z,12.53
2018-10-19T01:53:28.280Z,12.77
2018-10-19T01:55:55.902Z,13.73
2018-10-19T01:58:23.526Z,13.70
2018-10-19T02:00:51.443Z,12.30
2018-10-19T02:03:19.073Z,14.17
2018-10-19T02:05:46.665Z,13.93
2018-10-19T02:08:14.564Z,13.67
2018-10-19T02:10:42.186Z,11.97
2018-10-19T02:13:10.348Z,15.37
2018-10-19T02:15:38.447Z,17.30
2018-10-19T02:18:06.261Z,16.53
2018-10-19T02:20:33.929Z,13.47
2018-10-19T02:23:01.622Z,14.87
2018-10-19T02:25:29.195Z,16.03
2018-10-19T02:27:56.917Z,12.97
2018-10-19T02:30:24.535Z,13.47
2018-10-19T02:32:52.170Z,16.50
2018-10-19T02:35:19.749Z,14.23
2018-10-19T02:37:47.357Z,20.73
2018-10-19T02:40:15.008Z,15.70
2018-10-19T02:42:42.653Z,15.90
2018-10-19T02:45:10.894Z,16.60
2018-10-19T02:47:38.815Z,14.77
2018-10-19T02:50:06.848Z,14.23
2018-10-19T02:52:34.538Z,14.37
2018-10-19T02:55:02.501Z,14.10
2018-10-19T02:57:30.489Z,14.20
2018-10-19T02:59:58.046Z,18.00
2018-10-19T03:02:25.693Z,14.63
2018-10-19T03:04:53.336Z,14.23
2018-10-19T03:07:21.249Z,11.80
2018-10-19T03:09:48.813Z,10.77
2018-10-19T03:12:16.467Z,13.03
2018-10-19T03:14:44.061Z,13.80
2018-10-19T03:17:11.791Z,15.53
2018-10-19T03:19:39.334Z,13.73
2018-10-19T03:22:07.026Z,13.60
2018-10-19T03:24:34.668Z,13.93
2018-10-19T03:27:02.309Z,13.30
2018-10-19T03:29:29.977Z,11.03
2018-10-19T03:31:57.551Z,11.70
2018-10-19T03:34:25.250Z,11.47
2018-10-19T03:36:52.840Z,11.73
2018-10-19T03:39:20.455Z,11.57
2018-10-19T03:41:48.062Z,13.87
2018-10-19T03:44:15.728Z,13.27
2018-10-19T03:46:43.356Z,12.90
2018-10-19T03:49:11.085Z,12.93
2018-10-19T03:51:38.641Z,10.70
2018-10-19T03:54:06.368Z,10.27
2018-10-19T03:56:33.980Z,9.37
2018-10-19T03:59:01.646Z,9.63
2018-10-19T04:01:29.231Z,10.90
2018-10-19T04:03:56.908Z,12.73
2018-10-19T04:06:24.636Z,13.33
2018-10-19T04:08:52.307Z,13.13
2018-10-19T04:11:20.069Z,11.37
2018-10-19T04:13:47.681Z,13.33
2018-10-19T04:16:15.323Z,12.07
2018-10-19T04:18:42.940Z,10.07
2018-10-19T04:21:10.643Z,10.27
2018-10-19T04:23:38.254Z,13.40
2018-10-19T04:26:05.971Z,15.57
2018-10-19T04:28:33.597Z,15.07
2018-10-19T04:31:01.242Z,12.93
2018-10-19T04:33:28.912Z,14.20
2018-10-19T04:35:56.512Z,12.07
2018-10-19T04:38:24.233Z,15.23
2018-10-19T04:40:51.834Z,13.37
2018-10-19T04:43:19.424Z,14.17
2018-10-19T04:45:47.029Z,16.30
2018-10-19T04:48:14.626Z,13.80
2018-10-19T04:50:42.336Z,14.17
2018-10-19T04:53:10.050Z,14.60
2018-10-19T04:55:37.646Z,14.17
2018-10-19T04:58:05.278Z,13.70
2018-10-19T05:00:32.962Z,13.00
2018-10-19T05:03:00.571Z,14.23
2018-10-19T05:05:28.299Z,13.50
2018-10-19T05:07:55.914Z,13.13
2018-10-19T05:10:23.558Z,14.87
2018-10-19T05:12:51.170Z,14.60
2018-10-19T05:15:19.071Z,14.83
2018-10-19T05:17:46.683Z,13.37
2018-10-19T05:20:14.359Z,13.63
2018-10-19T05:22:41.942Z,12.03
2018-10-19T05:25:10.860Z,13.07
2018-10-19T05:27:38.436Z,11.37
2018-10-19T05:30:08.020Z,13.17
2018-10-19T05:32:35.656Z,18.27
2018-10-19T05:35:03.473Z,15.23
2018-10-19T05:37:31.707Z,17.33
2018-10-19T05:40:00.115Z,19.40
2018-10-19T05:42:27.748Z,15.37
2018-10-19T05:44:55.369Z,14.53
2018-10-19T05:47:22.978Z,14.10
2018-10-19T05:49:50.623Z,12.03
2018-10-19T05:52:18.240Z,12.00
2018-10-19T05:54:45.902Z,13.30
2018-10-19T05:57:13.476Z,13.67
2018-10-19T05:59:41.092Z,13.27
2018-10-19T06:02:08.739Z,12.30
2018-10-19T06:04:36.305Z,14.93
2018-10-19T06:07:04.026Z,13.63
2018-10-19T06:09:31.631Z,12.40
2018-10-19T06:11:59.217Z,13.27
2018-10-19T06:14:26.894Z,14.07
2018-10-19T06:16:54.518Z,16.47
2018-10-19T06:19:22.516Z,17.60
2018-10-19T06:21:50.185Z,15.50
2018-10-19T06:24:17.815Z,16.00
2018-10-19T06:26:45.427Z,13.67
2018-10-19T06:29:13.133Z,15.80
2018-10-19T06:31:40.713Z,14.07
2018-10-19T06:34:08.440Z,15.53
2018-10-19T06:36:36.030Z,19.07
2018-10-19T06:39:05.297Z,18.90
2018-10-19T06:41:32.900Z,22.93
2018-10-19T06:44:00.574Z,21.73
2018-10-19T06:46:28.202Z,21.93
2018-10-19T06:48:55.884Z,20.77
2018-10-19T06:51:23.501Z,21.60
2018-10-19T06:53:51.121Z,19.90
2018-10-19T06:56:18.751Z,19.70
2018-10-19T06:58:46.362Z,19.93
2018-10-19T07:01:14.029Z,21.37
2018-10-19T07:03:41.884Z,19.33
2018-10-19T07:06:09.609Z,15.27
2018-10-19T07:08:37.176Z,33.03
2018-10-19T07:11:05.196Z,25.83
2018-10-19T07:13:32.819Z,19.47
2018-10-19T07:16:00.516Z,17.60
2018-10-19T07:18:28.129Z,17.90
2018-10-19T07:20:55.760Z,17.47
2018-10-19T07:23:23.389Z,17.00
2018-10-19T07:25:50.985Z,26.97
2018-10-19T07:28:18.598Z,30.67
2018-10-19T07:30:46.269Z,23.27
2018-10-19T07:33:13.876Z,21.57
2018-10-19T07:35:41.526Z,18.90
2018-10-19T07:38:09.169Z,16.43
2018-10-19T07:40:37.332Z,15.00
2018-10-19T07:43:05.361Z,13.87
2018-10-19T07:45:32.952Z,13.57
2018-10-19T07:48:00.745Z,12.20
2018-10-19T07:50:28.304Z,10.67
2018-10-19T07:52:55.944Z,11.77
2018-10-19T07:55:23.497Z,9.87
2018-10-19T07:57:51.172Z,9.90
2018-10-19T08:00:18.831Z,8.63
2018-10-19T08:02:46.449Z,7.87
2018-10-19T08:05:14.421Z,7.63
2018-10-19T08:07:42.112Z,7.20
2018-10-19T08:10:10.236Z,7.15
2018-10-19T08:12:37.888Z,6.37
2018-10-19T08:15:06.391Z,6.77
2018-10-19T08:17:34.024Z,9.05
2018-10-19T08:20:01.672Z,9.90
2018-10-19T08:22:29.255Z,10.45
2018-10-19T08:24:57.104Z,12.03
2018-10-19T08:27:24.798Z,18.87
2018-10-19T08:29:52.319Z,16.95
2018-10-19T08:32:19.937Z,26.45
2018-10-19T08:34:47.621Z,28.77
2018-10-19T08:37:15.292Z,26.12
2018-10-19T08:39:42.951Z,23.25
2018-10-19T08:42:10.571Z,21.82
2018-10-19T08:44:38.167Z,36.10
2018-10-19T08:47:05.828Z,41.58
2018-10-19T08:49:33.413Z,35.92
2018-10-19T08:52:01.109Z,33.85
2018-10-19T08:54:28.757Z,41.55
2018-10-19T08:56:56.388Z,34.35
2018-10-19T08:59:23.968Z,34.95
2018-10-19T09:01:51.580Z,50.55
2018-10-19T09:04:19.168Z,65.20
2018-10-19T09:06:47.691Z,71.67
2018-10-19T09:09:15.375Z,76.57
2018-10-19T09:11:42.950Z,78.72
2018-10-19T09:14:21.867Z,70.28
2018-10-19T09:16:49.541Z,80.75
2018-10-19T09:19:17.235Z,73.93
2018-10-19T09:21:44.839Z,69.80
2018-10-19T09:24:12.535Z,67.40
2018-10-19T09:26:41.171Z,59.45
2018-10-19T09:29:08.819Z,53.48
2018-10-19T09:31:36.449Z,39.27
2018-10-19T09:34:04.394Z,35.68
2018-10-19T09:36:32.239Z,29.00
2018-10-19T09:38:59.662Z,28.00
2018-10-19T09:41:27.332Z,22.75
2018-10-19T09:43:55.033Z,20.97
2018-10-19T09:46:22.672Z,44.27
2018-10-19T09:48:50.315Z,37.15
2018-10-19T09:51:18.053Z,36.90
2018-10-19T09:53:45.687Z,33.98
2018-10-19T09:56:13.422Z,44.15
2018-10-19T09:58:40.947Z,42.67
2018-10-19T10:01:14.090Z,36.40
2018-10-19T10:03:41.679Z,38.75
2018-10-19T10:06:09.299Z,40.48
2018-10-19T10:08:36.898Z,47.05
2018-10-19T10:11:04.984Z,45.12
2018-10-19T10:13:32.564Z,34.55
2018-10-19T10:16:00.221Z,31.12
2018-10-19T10:18:27.959Z,37.60
2018-10-19T10:20:55.564Z,40.65
2018-10-19T10:23:23.631Z,46.77
2018-10-19T10:25:51.279Z,46.02
2018-10-19T10:28:18.910Z,44.35
2018-10-19T10:30:46.545Z,35.60
2018-10-19T10:33:14.537Z,34.15
2018-10-19T10:35:42.108Z,32.40
2018-10-19T10:38:09.749Z,28.10
2018-10-19T10:40:37.365Z,50.45
2018-10-19T10:43:05.484Z,50.70
2018-10-19T10:45:33.120Z,42.88
2018-10-19T10:48:01.189Z,56.35
2018-10-19T10:50:28.835Z,43.65
2018-10-19T10:52:56.499Z,52.30
2018-10-19T10:55:24.165Z,45.00
2018-10-19T10:57:51.814Z,34.03
2018-10-19T11:00:19.439Z,45.60
2018-10-19T11:02:47.039Z,41.50
2018-10-19T11:05:14.717Z,44.13
2018-10-19T11:07:42.393Z,51.48
2018-10-19T11:10:10.099Z,45.88
2018-10-19T11:12:37.715Z,41.65
2018-10-19T11:15:06.738Z,46.45
2018-10-19T11:17:34.448Z,39.23
2018-10-19T11:20:02.154Z,47.75
2018-10-19T11:22:29.748Z,38.85
2018-10-19T11:24:57.442Z,33.63
2018-10-19T11:27:25.490Z,39.33
2018-10-19T11:29:53.130Z,33.88
2018-10-19T11:32:20.749Z,45.70
2018-10-19T11:34:48.407Z,39.55
2018-10-19T11:37:16.146Z,49.15
2018-10-19T11:39:55.462Z,50.73
2018-10-19T11:42:23.046Z,46.68
2018-10-19T11:44:50.714Z,32.63
2018-10-19T11:47:18.340Z,45.28
2018-10-19T11:49:46.047Z,40.85
2018-10-19T11:52:13.813Z,61.63
2018-10-19T11:54:41.317Z,50.43
2018-10-19T11:57:08.961Z,49.45
2018-10-19T11:59:36.628Z,68.50
2018-10-19T12:02:04.477Z,54.13
2018-10-19T12:04:32.140Z,55.20
2018-10-19T12:06:59.791Z,74.45
2018-10-19T12:09:27.383Z,66.97
2018-10-19T12:11:55.033Z,54.30
2018-10-19T12:14:22.732Z,51.28
2018-10-19T12:16:50.539Z,57.65
2018-10-19T12:19:18.028Z,55.13
2018-10-19T12:21:45.763Z,43.73
2018-10-19T12:24:13.347Z,36.55
2018-10-19T12:26:40.986Z,57.75
2018-10-19T12:29:08.589Z,47.67
2018-10-19T12:31:36.216Z,56.70
2018-10-19T12:34:04.062Z,61.58
2018-10-19T12:36:31.731Z,64.80
2018-10-19T12:38:59.397Z,66.90
2018-10-19T12:41:27.047Z,67.87
2018-10-19T12:43:54.638Z,58.90
2018-10-19T12:46:39.958Z,56.55
2018-10-19T12:49:07.995Z,61.45
2018-10-19T12:51:35.855Z,64.32
2018-10-19T12:54:03.648Z,62.40
2018-10-19T12:56:31.280Z,55.05
2018-10-19T12:58:58.891Z,55.90
2018-10-19T13:01:27.631Z,56.08
2018-10-19T13:03:55.321Z,57.20
2018-10-19T13:06:23.225Z,68.78
2018-10-19T13:08:51.301Z,61.92
2018-10-19T13:11:19.172Z,60.05
2018-10-19T13:13:46.786Z,53.73
2018-10-19T13:16:14.461Z,53.73
2018-10-19T13:18:42.073Z,57.45
2018-10-19T13:21:09.812Z,58.35
2018-10-19T13:23:37.410Z,52.53
2018-10-19T13:26:05.160Z,50.38
2018-10-19T13:28:32.795Z,46.20
2018-10-19T13:31:00.491Z,54.85
2018-10-19T13:33:28.155Z,46.48
2018-10-19T13:35:55.840Z,40.80
2018-10-19T13:38:23.748Z,45.85
2018-10-19T13:40:52.244Z,47.15
2018-10-19T13:43:19.855Z,45.12
2018-10-19T13:45:47.545Z,39.08
2018-10-19T13:48:15.181Z,39.05
2018-10-19T13:50:42.836Z,42.50
2018-10-19T13:53:10.464Z,46.65
2018-10-19T13:55:38.024Z,47.25
2018-10-19T13:58:05.708Z,46.15
2018-10-19T14:00:33.899Z,47.67
2018-10-19T14:03:02.463Z,50.10
2018-10-19T14:05:30.209Z,47.88
2018-10-19T14:07:57.753Z,46.90
2018-10-19T14:10:25.656Z,48.25
2018-10-19T14:12:53.253Z,52.70
2018-10-19T14:15:20.824Z,50.33
2018-10-19T14:17:48.432Z,45.17
2018-10-19T14:20:16.107Z,55.15
2018-10-19T14:22:43.714Z,46.13
2018-10-19T14:25:12.380Z,39.27
2018-10-19T14:27:41.172Z,38.35
2018-10-19T14:30:11.059Z,42.75
2018-10-19T14:32:39.496Z,50.78
2018-10-19T14:35:07.552Z,50.58
2018-10-19T14:37:36.270Z,45.38
2018-10-19T14:40:04.900Z,51.18
2018-10-19T14:42:32.486Z,49.67
2018-10-19T14:45:00.095Z,50.60
2018-10-19T14:47:28.095Z,43.38
2018-10-19T14:49:55.680Z,39.65
2018-10-19T14:52:23.293Z,61.28
2018-10-19T14:54:51.204Z,50.00
2018-10-19T14:57:18.870Z,56.63
2018-10-19T14:59:46.545Z,49.73
2018-10-19T15:02:14.228Z,52.30
2018-10-19T15:04:41.887Z,54.38
2018-10-19T15:07:09.484Z,53.68
2018-10-19T15:09:37.175Z,50.98
2018-10-19T15:12:05.053Z,47.58
2018-10-19T15:14:32.647Z,50.98
2018-10-19T15:17:00.504Z,58.65
2018-10-19T15:19:28.128Z,61.28
2018-10-19T15:21:55.780Z,52.85
2018-10-19T15:24:23.384Z,58.98
2018-10-19T15:26:51.043Z,56.95
2018-10-19T15:29:18.648Z,46.10
2018-10-19T15:31:46.691Z,44.80
2018-10-19T15:34:14.286Z,41.95
2018-10-19T15:36:41.944Z,50.12
2018-10-19T15:39:10.594Z,51.33
2018-10-19T15:41:38.224Z,53.35
2018-10-19T15:44:05.920Z,54.45
2018-10-19T15:46:33.676Z,49.05
2018-10-19T15:49:01.316Z,48.15
2018-10-19T15:51:28.977Z,46.15
2018-10-19T15:53:56.622Z,40.23
2018-10-19T15:56:24.307Z,35.97
2018-10-19T15:58:51.929Z,31.33
2018-10-19T16:01:19.627Z,30.77
2018-10-19T16:03:47.285Z,31.80
2018-10-19T16:06:14.915Z,27.47
2018-10-19T16:08:42.559Z,26.02
2018-10-19T16:11:10.962Z,22.67
2018-10-19T16:13:38.578Z,22.90
2018-10-19T16:16:07.147Z,23.98
2018-10-19T16:18:34.771Z,24.15
2018-10-19T16:21:02.569Z,25.65
2018-10-19T16:23:30.232Z,27.32
2018-10-19T16:25:57.887Z,32.23
2018-10-19T16:28:25.971Z,35.60
2018-10-19T16:30:53.712Z,35.98
2018-10-19T16:33:21.348Z,33.48
2018-10-19T16:35:49.003Z,32.78
2018-10-19T16:38:16.655Z,35.30
2018-10-19T16:40:44.283Z,29.32
2018-10-19T16:43:11.907Z,28.83
2018-10-19T16:45:39.537Z,29.05
2018-10-19T16:48:07.194Z,31.93
2018-10-19T16:50:34.777Z,32.35
2018-10-19T16:53:02.554Z,36.13
2018-10-19T16:55:30.129Z,36.30
2018-10-19T16:57:57.823Z,34.15
2018-10-19T17:00:25.605Z,32.75
2018-10-19T17:02:53.680Z,33.48
2018-10-19T17:05:21.352Z,41.13
2018-10-19T17:07:48.970Z,35.60
2018-10-19T17:10:16.600Z,34.65
2018-10-19T17:12:44.449Z,33.83
2018-10-19T17:15:12.104Z,30.02
2018-10-19T17:17:39.682Z,31.02
2018-10-19T17:20:07.688Z,33.20
2018-10-19T17:22:35.656Z,28.90
2018-10-19T17:25:03.533Z,29.37
2018-10-19T17:27:31.190Z,28.95
2018-10-19T17:29:58.847Z,31.23
2018-10-19T17:32:26.484Z,31.82
2018-10-19T17:34:54.180Z,30.48
2018-10-19T17:37:21.767Z,32.42
2018-10-19T17:39:50.065Z,33.75
2018-10-19T17:42:17.717Z,30.40
2018-10-19T17:44:45.352Z,34.43
2018-10-19T17:47:13.049Z,37.35
2018-10-19T17:49:40.596Z,36.23
2018-10-19T17:52:08.333Z,33.00
2018-10-19T17:54:35.977Z,27.85
2018-10-19T17:57:03.655Z,28.50
2018-10-19T17:59:31.239Z,27.77
2018-10-19T18:01:58.837Z,31.87
2018-10-19T18:04:26.921Z,31.33
2018-10-19T18:06:54.481Z,28.20
2018-10-19T18:09:22.375Z,25.80
2018-10-19T18:11:49.993Z,25.13
2018-10-19T18:14:17.626Z,23.87
2018-10-19T18:16:45.652Z,29.43
2018-10-19T18:19:13.312Z,27.53
2018-10-19T18:21:41.125Z,26.30
2018-10-19T18:24:08.659Z,25.13
2018-10-19T18:26:36.256Z,27.50
2018-10-19T18:29:03.973Z,27.43
2018-10-19T18:31:31.570Z,26.60
2018-10-19T18:33:59.159Z,25.23
2018-10-19T18:36:26.889Z,26.17
2018-10-19T18:38:54.725Z,29.30
2018-10-19T18:41:22.333Z,24.37
2018-10-19T18:43:49.919Z,24.30
2018-10-19T18:46:17.544Z,24.10
2018-10-19T18:48:45.185Z,22.23
2018-10-19T18:51:12.860Z,22.37
2018-10-19T18:53:40.482Z,23.37
2018-10-19T18:56:08.206Z,25.13
2018-10-19T18:58:36.360Z,25.97
2018-10-19T19:01:04.002Z,29.80
2018-10-19T19:03:31.613Z,29.43
2018-10-19T19:05:59.230Z,28.33
2018-10-19T19:08:26.832Z,30.50
2018-10-19T19:10:54.490Z,28.97
2018-10-19T19:13:28.695Z,24.53
2018-10-19T19:15:57.492Z,25.63
2018-10-19T19:18:25.164Z,24.30
2018-10-19T19:20:52.801Z,24.17
2018-10-19T19:23:20.494Z,23.53
2018-10-19T19:25:53.827Z,21.83
2018-10-19T19:28:21.465Z,23.27
2018-10-19T19:30:49.126Z,22.93
2018-10-19T19:33:22.448Z,22.63
2018-10-19T19:35:50.236Z,25.30
2018-10-19T19:38:17.881Z,21.47
2018-10-19T19:40:51.196Z,21.20
2018-10-19T19:43:18.843Z,20.83
2018-10-19T19:45:46.464Z,19.83
2018-10-19T19:50:21.779Z,19.63
2018-10-19T19:52:49.605Z,23.43
2018-10-19T19:55:17.252Z,26.43
2018-10-19T19:57:44.840Z,22.97
2018-10-19T20:00:12.453Z,21.17
2018-10-19T20:02:40.081Z,23.17
2018-10-19T20:05:07.789Z,23.33
2018-10-19T20:07:35.638Z,23.10
2018-10-19T20:10:03.469Z,23.70
2018-10-19T20:12:31.137Z,21.20
2018-10-19T20:14:58.760Z,21.03
2018-10-19T20:17:27.508Z,18.90
2018-10-19T20:19:55.162Z,17.17
2018-10-19T20:22:22.883Z,19.43
2018-10-19T20:24:50.513Z,23.03
2018-10-19T20:27:18.166Z,26.40
2018-10-19T20:29:45.754Z,21.57
2018-10-19T20:32:13.374Z,19.27
2018-10-19T20:34:41.001Z,16.97
2018-10-19T20:37:08.680Z,15.50
2018-10-19T20:39:36.286Z,16.60
2018-10-19T20:42:04.133Z,19.37
2018-10-19T20:44:31.753Z,24.03
2018-10-19T20:46:59.455Z,20.33
2018-10-19T20:49:27.156Z,23.43
2018-10-19T20:51:54.822Z,20.30
2018-10-19T20:54:22.436Z,20.80
2018-10-19T20:56:50.105Z,18.37
2018-10-19T20:59:17.755Z,19.13
2018-10-19T21:01:45.461Z,19.73
2018-10-19T21:04:13.124Z,21.17
2018-10-19T21:06:40.737Z,20.70
2018-10-19T21:09:09.415Z,21.23
2018-10-19T21:11:37.796Z,21.03
2018-10-19T21:14:05.778Z,23.73
2018-10-19T21:16:33.391Z,29.53
2018-10-19T21:19:01.105Z,29.20
2018-10-19T21:21:28.832Z,28.77
2018-10-19T21:23:56.403Z,27.60
2018-10-19T21:26:24.228Z,23.33
2018-10-19T21:28:52.049Z,22.17
2018-10-19T21:31:19.631Z,25.23
2018-10-19T21:33:47.440Z,24.90
2018-10-19T21:36:15.014Z,23.50
2018-10-19T21:38:42.597Z,20.67
2018-10-19T21:41:10.371Z,19.37
2018-10-19T21:43:37.899Z,22.00
2018-10-19T21:46:05.750Z,20.77
2018-10-19T21:48:33.374Z,17.60
2018-10-19T21:51:01.640Z,19.47
2018-10-19T21:53:29.409Z,21.73
2018-10-19T21:55:57.028Z,20.67
2018-10-19T21:58:24.634Z,18.57
2018-10-19T22:00:52.356Z,17.03
2018-10-19T22:03:19.949Z,16.67
2018-10-19T22:05:47.594Z,23.03
2018-10-19T22:08:15.186Z,18.60
2018-10-19T22:10:42.789Z,18.50
2018-10-19T22:13:10.721Z,25.37
2018-10-19T22:15:38.259Z,23.90
2018-10-19T22:18:05.878Z,21.33
2018-10-19T22:20:33.658Z,20.43
2018-10-19T22:23:01.324Z,21.73
2018-10-19T22:25:28.928Z,20.67
2018-10-19T22:27:56.556Z,21.97
2018-10-19T22:30:24.884Z,20.33
2018-10-19T22:32:52.537Z,22.37
2018-10-19T22:35:20.191Z,20.53
2018-10-19T22:37:48.595Z,24.73
2018-10-19T22:40:16.239Z,21.43
2018-10-19T22:42:43.856Z,21.57
2018-10-19T22:45:11.406Z,19.80
2018-10-19T22:47:39.025Z,25.70
2018-10-19T22:50:06.708Z,25.23
2018-10-19T22:52:34.304Z,23.23
2018-10-19T22:55:02.037Z,22.27
2018-10-19T22:57:29.677Z,24.70
2018-10-19T22:59:57.309Z,24.97
2018-10-19T23:02:24.919Z,24.23
2018-10-19T23:04:52.653Z,22.70
2018-10-19T23:07:20.598Z,24.03
2018-10-19T23:09:48.269Z,26.20
2018-10-19T23:12:15.856Z,24.53
2018-10-19T23:14:43.500Z,21.83
2018-10-19T23:17:11.335Z,23.63
2018-10-19T23:19:38.898Z,32.00
2018-10-19T23:22:06.522Z,34.20
2018-10-19T23:24:34.189Z,31.97
2018-10-19T23:27:01.818Z,35.00
2018-10-19T23:29:29.760Z,43.90
2018-10-19T23:31:57.354Z,40.07
2018-10-19T23:34:25.029Z,35.70
2018-10-19T23:36:52.663Z,39.83
2018-10-19T23:39:20.315Z,33.23
2018-10-19T23:41:48.040Z,29.27
2018-10-19T23:44:15.716Z,30.97
2018-10-19T23:46:43.334Z,33.53
2018-10-19T23:49:11.005Z,30.80
2018-10-19T23:51:38.634Z,30.77
2018-10-19T23:54:06.293Z,28.33
2018-10-19T23:56:33.879Z,25.53
2018-10-19T23:59:01.553Z,25.33
